Time;durP1;ratioP1;P1;durP2;ratioP2;P2;SDS_P1;SDS_P2;PMS_P1;PMS_P2;Temp;Humidity;BMP_temperature;BMP_pressure;BME280_temperature;BME280_humidity;BME280_pressure;Samples;Min_cycle;Max_cycle;Signal;HPM_P1;HPM_P2
2023/02/24 00:01:00;;;;;;;14.32;9.48;;;1.50;56.50;;;;;;4974371;28;20038;-63
2023/02/24 00:03:26;;;;;;;13.90;9.35;;;1.50;56.50;;;;;;4978667;28;20065;-63
2023/02/24 00:05:51;;;;;;;16.98;10.93;;;1.60;56.60;;;;;;4979650;28;20059;-64
2023/02/24 00:08:17;;;;;;;20.02;13.23;;;1.60;56.60;;;;;;4974824;28;20041;-64
2023/02/24 00:10:43;;;;;;;20.90;13.13;;;1.60;56.60;;;;;;4965196;28;20050;-56
2023/02/24 00:13:10;;;;;;;23.80;14.75;;;1.60;56.60;;;;;;4974829;28;20066;-55
2023/02/24 00:15:36;;;;;;;25.80;16.15;;;1.60;56.60;;;;;;4967757;28;20117;-57
2023/02/24 00:18:05;;;;;;;30.25;17.08;;;1.70;56.50;;;;;;4976329;28;20474;-54
2023/02/24 00:20:32;;;;;;;29.10;18.95;;;1.60;56.40;;;;;;4977250;28;20026;-55
2023/02/24 00:22:59;;;;;;;28.98;18.02;;;1.70;56.40;;;;;;4977234;28;20058;-56
2023/02/24 00:25:24;;;;;;;25.20;15.65;;;1.70;56.40;;;;;;4975026;28;20034;-56
2023/02/24 00:27:54;;;;;;;22.48;13.38;;;1.70;56.30;;;;;;4982992;28;20026;-56
2023/02/24 00:30:22;;;;;;;19.83;13.50;;;1.70;56.20;;;;;;4976827;28;20504;-50
2023/02/24 00:32:48;;;;;;;17.67;10.32;;;1.70;56.00;;;;;;4978834;28;20067;-60
2023/02/24 00:35:14;;;;;;;13.50;9.40;;;1.70;55.90;;;;;;4978381;28;20035;-63
2023/02/24 00:37:40;;;;;;;12.52;9.00;;;1.70;55.80;;;;;;4977349;28;20054;-63
2023/02/24 00:40:10;;;;;;;11.43;8.60;;;1.70;55.70;;;;;;4978440;28;20646;-63
2023/02/24 00:42:36;;;;;;;13.65;8.60;;;1.80;55.70;;;;;;4988745;28;20022;-62
2023/02/24 00:45:06;;;;;;;11.30;8.00;;;1.70;55.60;;;;;;4983925;28;20031;-62
2023/02/24 00:47:37;;;;;;;11.45;8.13;;;1.70;55.30;;;;;;4980091;28;20038;-63
2023/02/24 00:50:04;;;;;;;12.35;8.52;;;1.60;55.30;;;;;;4988406;28;20047;-63
2023/02/24 00:52:29;;;;;;;12.38;8.43;;;1.60;55.30;;;;;;4984092;28;20030;-55
2023/02/24 00:54:55;;;;;;;12.88;8.45;;;1.50;55.20;;;;;;4977957;28;20069;-55
2023/02/24 00:57:21;;;;;;;12.95;8.77;;;1.50;55.40;;;;;;4982219;28;20531;-60
2023/02/24 00:59:46;;;;;;;12.40;8.93;;;1.40;55.30;;;;;;4969429;28;20082;-62
2023/02/24 01:02:13;;;;;;;11.80;8.18;;;1.40;55.30;;;;;;4980722;28;20034;-62
2023/02/24 01:04:39;;;;;;;12.98;8.90;;;1.40;55.40;;;;;;4971931;28;20104;-61
2023/02/24 01:07:09;;;;;;;11.20;8.25;;;1.40;55.50;;;;;;4979738;28;21997;-61
2023/02/24 01:09:36;;;;;;;12.57;8.40;;;1.40;55.40;;;;;;4974358;28;20110;-62
2023/02/24 01:14:52;;;;;;;9.30;7.30;;;1.40;55.50;;;;;;4978691;28;20129;-61
2023/02/24 01:17:18;;;;;;;10.75;7.13;;;1.40;55.30;;;;;;4981141;28;20244;-64
2023/02/24 01:19:47;;;;;;;9.15;6.88;;;1.30;55.30;;;;;;4974516;28;20101;-63
2023/02/24 01:22:14;;;;;;;9.55;6.82;;;1.30;55.20;;;;;;4973156;28;20413;-61
2023/02/24 01:24:42;;;;;;;9.50;6.95;;;1.30;55.20;;;;;;4976573;28;20035;-61
2023/02/24 01:27:09;;;;;;;8.80;6.95;;;1.30;55.30;;;;;;4974443;28;20035;-63
2023/02/24 01:29:38;;;;;;;8.75;6.85;;;1.20;55.20;;;;;;4984006;28;20038;-64
2023/02/24 01:32:15;;;;;;;8.70;6.32;;;1.20;55.20;;;;;;4973966;28;20027;-62
2023/02/24 01:34:41;;;;;;;10.95;7.30;;;1.20;55.20;;;;;;4970925;28;20057;-61
2023/02/24 01:37:08;;;;;;;9.00;6.55;;;1.20;55.30;;;;;;4981926;28;20058;-61
2023/02/24 01:39:34;;;;;;;9.00;7.60;;;1.10;55.10;;;;;;4968594;28;20035;-61
2023/02/24 01:42:02;;;;;;;9.10;7.13;;;1.10;55.20;;;;;;4988956;28;20028;-60
2023/02/24 01:44:31;;;;;;;10.68;7.40;;;1.10;55.30;;;;;;4971411;28;20085;-60
2023/02/24 01:47:00;;;;;;;10.43;7.18;;;1.10;55.40;;;;;;4985030;28;20041;-61
2023/02/24 01:49:28;;;;;;;9.63;7.22;;;1.10;55.40;;;;;;4972063;28;20450;-61
2023/02/24 01:52:02;;;;;;;9.43;7.35;;;1.10;55.50;;;;;;4974147;28;20034;-62
2023/02/24 01:54:34;;;;;;;12.57;8.27;;;1.10;55.50;;;;;;4973771;28;20035;-64
2023/02/24 01:57:04;;;;;;;10.48;8.20;;;1.10;55.50;;;;;;4983060;28;20027;-51
2023/02/24 01:59:32;;;;;;;10.43;8.40;;;1.10;55.50;;;;;;4975746;28;20036;-54
2023/02/24 02:02:03;;;;;;;10.60;7.82;;;1.10;55.50;;;;;;4965196;28;20081;-53
2023/02/24 02:04:41;;;;;;;11.00;7.72;;;1.10;55.60;;;;;;4974883;28;20111;-53
2023/02/24 02:07:10;;;;;;;10.73;7.57;;;1.10;55.60;;;;;;4980715;28;20039;-54
2023/02/24 02:09:40;;;;;;;9.60;7.47;;;1.10;55.50;;;;;;4986896;28;20027;-52
2023/02/24 02:12:06;;;;;;;7.80;6.72;;;1.10;55.30;;;;;;4973470;28;20077;-61
2023/02/24 02:14:32;;;;;;;8.35;6.20;;;1.10;55.50;;;;;;4984296;28;20100;-61
2023/02/24 02:17:07;;;;;;;8.73;6.13;;;1.10;55.50;;;;;;4977222;28;20022;-61
2023/02/24 02:19:54;;;;;;;7.60;5.72;;;1.10;55.40;;;;;;4981342;28;20041;-63
2023/02/24 02:22:51;;;;;;;6.97;5.88;;;1.10;55.40;;;;;;4974281;28;20050;-62
2023/02/24 02:25:42;;;;;;;7.53;5.70;;;1.10;55.60;;;;;;4988364;28;20038;-61
2023/02/24 02:28:52;;;;;;;8.23;5.68;;;1.10;55.60;;;;;;4982449;28;20030;-65
2023/02/24 02:31:39;;;;;;;7.97;5.78;;;1.00;55.40;;;;;;4956042;28;20473;-61
2023/02/24 02:34:05;;;;;;;7.95;5.78;;;1.00;55.50;;;;;;4976195;28;20065;-62
2023/02/24 02:36:46;;;;;;;7.38;5.88;;;1.00;55.50;;;;;;4969118;28;20426;-62
2023/02/24 02:39:20;;;;;;;6.63;5.90;;;1.00;55.60;;;;;;4982133;28;20027;-62
2023/02/24 02:42:15;;;;;;;5.78;5.18;;;1.00;55.60;;;;;;4978825;28;20030;-55
2023/02/24 02:45:04;;;;;;;6.53;5.07;;;1.00;55.60;;;;;;4963702;28;20444;-51
2023/02/24 02:47:55;;;;;;;6.65;5.43;;;1.00;55.70;;;;;;4970412;28;20057;-63
2023/02/24 02:50:30;;;;;;;7.38;5.57;;;1.00;55.60;;;;;;4967141;28;20066;-62
2023/02/24 02:53:13;;;;;;;7.20;5.78;;;1.00;55.60;;;;;;4978122;28;20034;-62
2023/02/24 02:55:46;;;;;;;8.48;5.88;;;1.00;55.60;;;;;;4987356;28;20030;-63
2023/02/24 02:58:19;;;;;;;6.55;5.43;;;1.00;55.70;;;;;;4984020;28;20076;-64
2023/02/24 03:01:03;;;;;;;8.15;5.60;;;1.00;55.80;;;;;;4976380;28;20098;-56
2023/02/24 03:03:39;;;;;;;7.10;5.80;;;1.00;55.80;;;;;;4975420;28;20034;-64
2023/02/24 03:06:16;;;;;;;6.03;4.97;;;1.00;55.80;;;;;;4972281;28;20031;-65
2023/02/24 03:08:58;;;;;;;7.05;5.50;;;1.00;55.80;;;;;;4982340;28;20038;-64
2023/02/24 03:11:24;;;;;;;6.78;5.38;;;1.10;55.90;;;;;;4963096;28;20058;-54
2023/02/24 03:13:53;;;;;;;7.10;5.75;;;1.00;56.00;;;;;;4980994;28;20116;-54
2023/02/24 03:16:22;;;;;;;8.13;5.72;;;1.00;55.80;;;;;;4973477;28;20461;-48
2023/02/24 03:19:02;;;;;;;7.88;6.10;;;1.00;55.80;;;;;;4960847;28;20050;-52
2023/02/24 03:21:33;;;;;;;7.60;5.90;;;1.00;55.90;;;;;;4976234;28;20078;-51
2023/02/24 03:24:01;;;;;;;7.57;5.50;;;1.00;56.00;;;;;;4975393;28;20109;-49
2023/02/24 03:26:52;;;;;;;8.50;6.10;;;0.90;56.00;;;;;;4973615;28;20038;-50
2023/02/24 03:29:39;;;;;;;7.25;5.90;;;0.90;56.00;;;;;;4977569;28;20161;-51
2023/02/24 03:32:24;;;;;;;8.63;6.18;;;0.90;56.10;;;;;;4963731;28;20478;-49
2023/02/24 03:35:03;;;;;;;10.27;6.40;;;0.90;56.30;;;;;;4970431;28;20030;-55
2023/02/24 03:37:30;;;;;;;8.38;6.30;;;0.80;56.20;;;;;;4975015;28;20081;-62
2023/02/24 03:39:59;;;;;;;9.10;6.43;;;0.80;57.00;;;;;;4983071;28;20101;-62
2023/02/24 03:42:30;;;;;;;11.88;7.28;;;0.80;56.40;;;;;;4972360;28;20054;-61
2023/02/24 03:44:57;;;;;;;10.65;7.63;;;0.80;56.30;;;;;;4979165;28;20085;-61
2023/02/24 03:47:24;;;;;;;11.25;7.55;;;0.80;56.40;;;;;;4976372;28;20135;-62
2023/02/24 03:49:50;;;;;;;10.63;6.95;;;0.80;56.60;;;;;;4981529;28;20399;-62
2023/02/24 03:52:24;;;;;;;10.77;7.38;;;0.80;56.50;;;;;;4966099;28;20073;-54
2023/02/24 03:55:05;;;;;;;10.27;7.07;;;0.80;56.50;;;;;;4972335;28;20058;-56
2023/02/24 03:57:53;;;;;;;11.55;7.40;;;0.80;56.60;;;;;;4974516;28;20024;-54
2023/02/24 04:00:33;;;;;;;8.50;6.65;;;0.80;56.80;;;;;;4985945;28;20107;-51
2023/02/24 04:03:27;;;;;;;10.65;7.47;;;0.80;56.80;;;;;;4988293;28;20453;-52
2023/02/24 04:05:58;;;;;;;10.80;7.18;;;0.90;56.80;;;;;;4972668;28;20030;-53
2023/02/24 04:08:29;;;;;;;9.20;7.03;;;0.90;57.00;;;;;;4980370;28;20042;-53
2023/02/24 04:11:27;;;;;;;9.25;7.45;;;0.90;56.80;;;;;;4968809;28;20027;-61
2023/02/24 04:14:17;;;;;;;10.25;8.07;;;0.90;57.30;;;;;;4976621;28;20046;-61
2023/02/24 04:16:59;;;;;;;9.65;7.25;;;0.90;56.80;;;;;;4976165;28;20023;-53
2023/02/24 04:19:28;;;;;;;8.85;7.05;;;1.00;56.80;;;;;;4973074;28;20454;-54
2023/02/24 04:21:55;;;;;;;10.73;7.40;;;1.00;56.80;;;;;;4976780;28;20042;-61
2023/02/24 04:24:26;;;;;;;8.27;6.72;;;1.00;56.70;;;;;;4973397;28;20049;-60
2023/02/24 04:26:57;;;;;;;8.80;6.82;;;1.00;56.70;;;;;;4974052;28;20042;-55
2023/02/24 04:29:27;;;;;;;8.48;6.78;;;1.00;56.70;;;;;;4976116;28;20035;-54
2023/02/24 04:31:59;;;;;;;9.10;6.80;;;1.00;56.70;;;;;;4977568;28;20117;-56
2023/02/24 04:34:28;;;;;;;10.02;6.85;;;1.00;56.70;;;;;;4976453;28;20581;-52
2023/02/24 04:36:53;;;;;;;9.32;7.75;;;1.00;56.70;;;;;;4974067;28;20019;-53
2023/02/24 04:39:22;;;;;;;13.10;8.70;;;1.00;56.60;;;;;;4975492;28;20034;-53
2023/02/24 04:41:48;;;;;;;11.43;8.32;;;1.00;56.80;;;;;;4976768;28;20038;-56
2023/02/24 04:44:16;;;;;;;12.50;8.90;;;0.90;56.80;;;;;;4974939;28;20039;-51
2023/02/24 04:46:46;;;;;;;13.10;9.02;;;0.90;56.80;;;;;;4976297;28;20086;-52
2023/02/24 04:49:12;;;;;;;11.63;8.25;;;0.90;56.90;;;;;;4969468;28;20131;-54
2023/02/24 04:51:41;;;;;;;11.52;8.05;;;1.00;56.90;;;;;;4974398;28;20037;-50
2023/02/24 04:54:16;;;;;;;10.90;7.88;;;1.00;56.80;;;;;;4997510;28;20049;-55
2023/02/24 04:56:43;;;;;;;9.63;7.50;;;1.00;56.90;;;;;;4987350;28;20027;-51
2023/02/24 04:59:09;;;;;;;10.90;7.70;;;1.00;57.20;;;;;;4971265;28;20105;-56
2023/02/24 05:01:39;;;;;;;10.45;7.72;;;1.00;57.20;;;;;;4979912;28;20033;-55
2023/02/24 05:04:06;;;;;;;10.15;7.35;;;1.00;57.20;;;;;;4978657;28;20537;-52
2023/02/24 05:06:32;;;;;;;10.98;7.95;;;1.10;57.20;;;;;;4976523;28;20023;-58
2023/02/24 05:09:00;;;;;;;9.80;7.25;;;1.10;57.20;;;;;;4969767;28;20119;-52
2023/02/24 05:11:26;;;;;;;9.98;7.78;;;1.10;57.50;;;;;;4982070;28;20458;-61
2023/02/24 05:13:52;;;;;;;10.30;6.90;;;1.20;57.30;;;;;;4966960;28;20038;-61
2023/02/24 05:16:19;;;;;;;10.65;7.80;;;1.20;57.40;;;;;;4970053;28;20429;-61
2023/02/24 05:18:44;;;;;;;10.00;7.50;;;1.30;57.40;;;;;;4971096;28;20144;-61
2023/02/24 05:24:05;;;;;;;11.20;8.02;;;1.40;57.40;;;;;;4977210;28;20112;-49
2023/02/24 05:26:32;;;;;;;11.70;8.38;;;1.40;57.40;;;;;;4991198;28;20473;-64
2023/02/24 05:29:00;;;;;;;11.93;8.63;;;1.50;57.50;;;;;;4986357;28;20038;-64
2023/02/24 05:31:28;;;;;;;12.73;8.90;;;1.60;57.50;;;;;;4979988;28;20030;-61
2023/02/24 05:33:59;;;;;;;10.05;8.40;;;1.60;57.30;;;;;;4979415;28;20043;-61
2023/02/24 05:36:28;;;;;;;11.25;8.35;;;1.60;57.40;;;;;;4970380;28;20022;-61
2023/02/24 05:38:58;;;;;;;10.68;8.48;;;1.70;57.50;;;;;;4976591;28;20469;-61
2023/02/24 05:41:34;;;;;;;9.90;7.78;;;1.70;57.50;;;;;;4969314;28;20037;-55
2023/02/24 05:44:03;;;;;;;9.50;6.82;;;1.70;57.50;;;;;;4981163;28;20038;-52
2023/02/24 05:46:31;;;;;;;9.23;6.60;;;1.80;57.70;;;;;;4981490;28;20026;-61
2023/02/24 05:48:59;;;;;;;11.40;7.18;;;1.80;57.50;;;;;;4983872;28;20027;-60
2023/02/24 05:51:33;;;;;;;10.02;7.30;;;1.80;57.50;;;;;;4971871;28;20042;-61
2023/02/24 05:54:07;;;;;;;9.82;7.35;;;1.80;57.50;;;;;;4977349;28;20053;-61
2023/02/24 05:56:34;;;;;;;8.73;6.85;;;1.90;57.60;;;;;;4974469;28;20023;-60
2023/02/24 05:59:02;;;;;;;10.55;7.13;;;1.90;57.60;;;;;;4982175;28;20039;-61
2023/02/24 06:01:32;;;;;;;10.13;7.40;;;1.90;57.70;;;;;;4972097;28;20035;-61
2023/02/24 06:04:06;;;;;;;11.77;6.90;;;2.00;57.80;;;;;;4968602;28;20042;-61
2023/02/24 06:06:34;;;;;;;8.85;7.20;;;2.00;57.80;;;;;;4974749;28;20098;-63
2023/02/24 06:09:06;;;;;;;9.57;7.22;;;2.10;57.80;;;;;;4972652;28;20126;-62
2023/02/24 06:11:32;;;;;;;10.88;7.93;;;2.10;57.80;;;;;;4970323;28;20031;-62
2023/02/24 06:13:57;;;;;;;11.77;7.47;;;2.10;57.70;;;;;;4973270;28;20037;-61
2023/02/24 06:16:24;;;;;;;9.88;7.47;;;2.10;57.80;;;;;;4979865;28;20038;-62
2023/02/24 06:18:50;;;;;;;9.50;7.55;;;2.00;57.90;;;;;;4980296;28;20023;-61
2023/02/24 06:21:16;;;;;;;9.85;7.20;;;2.00;58.00;;;;;;4973802;28;20138;-62
2023/02/24 06:23:44;;;;;;;10.20;7.35;;;2.10;58.20;;;;;;4979646;28;21299;-61
2023/02/24 06:26:11;;;;;;;10.40;7.20;;;2.10;58.40;;;;;;4984355;28;20191;-61
2023/02/24 06:28:43;;;;;;;9.95;7.25;;;2.20;58.20;;;;;;4979560;28;20050;-62
2023/02/24 06:31:09;;;;;;;10.05;7.55;;;2.20;58.40;;;;;;4971911;28;20487;-62
2023/02/24 06:33:37;;;;;;;9.82;7.25;;;2.30;58.30;;;;;;4976631;28;20043;-61
2023/02/24 06:36:03;;;;;;;10.90;7.60;;;2.30;58.10;;;;;;4967912;28;20034;-63
2023/02/24 06:38:34;;;;;;;10.70;8.00;;;2.30;58.10;;;;;;4975514;28;20031;-62
2023/02/24 06:41:09;;;;;;;9.93;7.43;;;2.30;58.10;;;;;;4974153;28;20023;-61
2023/02/24 06:43:37;;;;;;;12.25;7.93;;;2.30;58.30;;;;;;4978071;28;20739;-63
2023/02/24 06:46:05;;;;;;;10.10;7.10;;;2.30;58.30;;;;;;4975678;28;20026;-62
2023/02/24 06:48:32;;;;;;;9.55;7.30;;;2.30;58.40;;;;;;4979196;28;20023;-61
2023/02/24 06:51:02;;;;;;;11.38;7.65;;;2.30;58.40;;;;;;4966262;28;20077;-53
2023/02/24 06:53:28;;;;;;;9.18;7.30;;;2.40;58.50;;;;;;4961836;28;20039;-51
2023/02/24 06:55:54;;;;;;;9.57;8.07;;;2.40;58.50;;;;;;4964979;28;20058;-56
2023/02/24 06:58:23;;;;;;;11.52;8.18;;;2.40;58.60;;;;;;4974942;28;20045;-55
2023/02/24 07:00:58;;;;;;;11.50;8.32;;;2.40;58.80;;;;;;4976649;28;20032;-53
2023/02/24 07:03:38;;;;;;;12.82;8.55;;;2.50;59.50;;;;;;4962648;28;20421;-50
2023/02/24 07:06:19;;;;;;;10.27;7.65;;;2.50;58.80;;;;;;4971158;28;20122;-53
2023/02/24 07:08:46;;;;;;;10.70;8.18;;;2.50;58.80;;;;;;4975644;28;20018;-55
2023/02/24 07:11:12;;;;;;;11.88;8.68;;;2.50;59.00;;;;;;4967748;28;20043;-51
2023/02/24 07:13:39;;;;;;;11.23;8.60;;;2.60;59.10;;;;;;4965387;28;20039;-52
2023/02/24 07:16:06;;;;;;;11.70;8.93;;;2.70;59.10;;;;;;4962870;28;20031;-50
2023/02/24 07:18:35;;;;;;;13.45;8.75;;;2.70;59.10;;;;;;4968313;28;20109;-55
2023/02/24 07:21:10;;;;;;;10.20;7.80;;;2.70;59.20;;;;;;4971526;28;20045;-52
2023/02/24 07:23:38;;;;;;;10.73;8.27;;;2.80;59.30;;;;;;4965052;28;20035;-55
2023/02/24 07:26:14;;;;;;;10.80;7.78;;;2.80;59.50;;;;;;4957865;28;20153;-52
2023/02/24 07:28:42;;;;;;;13.85;9.25;;;2.80;59.40;;;;;;4970026;28;20048;-58
2023/02/24 07:31:16;;;;;;;14.77;9.38;;;2.90;59.50;;;;;;4964845;28;20533;-58
2023/02/24 07:33:44;;;;;;;14.77;9.50;;;3.00;59.60;;;;;;4953780;28;20050;-54
2023/02/24 07:36:14;;;;;;;13.90;10.38;;;3.00;59.60;;;;;;4953211;28;20551;-57
2023/02/24 07:38:41;;;;;;;13.73;10.03;;;3.10;59.60;;;;;;4959867;28;20623;-57
2023/02/24 07:41:11;;;;;;;13.27;9.95;;;3.10;60.20;;;;;;4956559;28;20359;-54
2023/02/24 07:43:38;;;;;;;11.93;9.57;;;3.20;59.70;;;;;;4954393;28;20141;-53
2023/02/24 07:46:18;;;;;;;11.45;9.15;;;3.20;59.80;;;;;;4961083;28;20098;-54
2023/02/24 07:48:45;;;;;;;13.93;9.13;;;3.30;60.00;;;;;;4957750;28;20031;-59
2023/02/24 07:51:16;;;;;;;15.30;9.55;;;3.40;60.00;;;;;;4954634;28;20031;-55
2023/02/24 07:53:42;;;;;;;13.82;9.55;;;3.40;59.90;;;;;;4953773;28;20758;-55
2023/02/24 07:56:16;;;;;;;13.45;9.23;;;3.40;60.00;;;;;;4958609;28;20066;-56
2023/02/24 07:58:43;;;;;;;14.48;10.38;;;3.50;60.20;;;;;;4956224;28;20496;-53
2023/02/24 08:01:21;;;;;;;13.10;9.40;;;3.50;60.30;;;;;;4950864;28;20101;-51
2023/02/24 08:03:55;;;;;;;13.10;9.45;;;3.60;60.40;;;;;;4945185;28;20039;-53
2023/02/24 08:06:36;;;;;;;10.95;8.68;;;3.70;60.40;;;;;;4952917;28;20037;-58
2023/02/24 08:10:08;;;;;;;12.48;9.32;;;3.80;60.50;;;;;;4947196;28;20031;-52
2023/02/24 08:12:16;;;;;;;12.63;9.93;;;3.90;60.50;;;;;;4947642;28;20041;-59
2023/02/24 08:14:49;;;;;;;12.10;8.68;;;4.00;60.50;;;;;;4949174;28;20034;-59
2023/02/24 08:17:18;;;;;;;13.05;8.80;;;4.20;60.40;;;;;;4955221;28;20123;-47
2023/02/24 08:19:46;;;;;;;14.18;9.25;;;4.30;60.30;;;;;;4956138;28;20025;-56
2023/02/24 08:22:23;;;;;;;12.23;8.45;;;4.30;60.20;;;;;;4956103;28;20097;-55
2023/02/24 08:25:00;;;;;;;11.13;8.82;;;4.30;60.20;;;;;;4958068;28;20134;-54
2023/02/24 08:27:32;;;;;;;11.20;7.77;;;4.40;60.30;;;;;;4954891;28;20073;-51
2023/02/24 08:30:00;;;;;;;12.88;8.52;;;4.40;60.50;;;;;;4949907;28;20502;-49
2023/02/24 08:32:45;;;;;;;11.52;7.65;;;4.40;60.50;;;;;;4956298;28;20035;-54
2023/02/24 08:35:21;;;;;;;9.77;7.75;;;4.50;60.50;;;;;;4953356;28;20046;-56
2023/02/24 08:37:51;;;;;;;11.30;7.85;;;4.50;60.60;;;;;;4955981;28;20035;-59
2023/02/24 08:43:14;;;;;;;11.95;7.40;;;4.60;60.80;;;;;;4958435;28;20334;-52
2023/02/24 08:45:43;;;;;;;11.77;8.00;;;4.60;60.90;;;;;;4962421;28;20106;-58
2023/02/24 08:48:25;;;;;;;9.82;7.75;;;4.70;60.90;;;;;;4958669;28;20043;-52
2023/02/24 08:50:58;;;;;;;;;;;4.80;61.10;;;;;;4960232;28;20062;-57
2023/02/24 08:53:30;;;;;;;11.27;7.25;;;4.80;61.10;;;;;;4959046;28;19917;-48
2023/02/24 08:55:59;;;;;;;;;;;4.90;60.90;;;;;;4955552;28;20031;-54
2023/02/24 08:58:25;;;;;;;10.68;7.35;;;4.90;61.10;;;;;;4959823;28;19920;-51
2023/02/24 09:00:55;;;;;;;9.38;6.85;;;5.00;60.80;;;;;;4948434;28;20050;-56
2023/02/24 09:03:26;;;;;;;6.72;6.00;;;5.10;60.70;;;;;;4955820;28;20035;-51
2023/02/24 09:06:04;;;;;;;9.10;6.13;;;5.20;60.70;;;;;;4957137;28;20030;-51
2023/02/24 09:08:32;;;;;;;11.00;7.45;;;5.30;60.80;;;;;;4957017;28;20074;-55
2023/02/24 09:11:08;;;;;;;11.98;7.70;;;5.30;60.60;;;;;;4953417;28;20037;-52
2023/02/24 09:13:36;;;;;;;10.00;6.90;;;5.30;60.40;;;;;;4948529;28;22361;-53
2023/02/24 09:16:03;;;;;;;10.50;7.07;;;5.40;60.50;;;;;;4947996;28;20624;-54
2023/02/24 09:18:29;;;;;;;8.43;6.70;;;5.40;60.50;;;;;;4943126;28;20377;-56
2023/02/24 09:21:14;;;;;;;8.65;6.55;;;5.40;60.50;;;;;;4954736;28;23271;-52
2023/02/24 09:23:44;;;;;;;10.65;7.20;;;5.40;60.50;;;;;;4960377;28;20042;-49
2023/02/24 09:26:12;;;;;;;11.13;7.50;;;5.40;60.80;;;;;;4955597;28;20038;-58
2023/02/24 09:28:47;;;;;;;11.65;7.68;;;5.40;60.70;;;;;;4952392;28;20031;-54
2023/02/24 09:31:15;;;;;;;9.43;6.18;;;5.40;60.70;;;;;;4954172;28;20130;-50
2023/02/24 09:33:42;;;;;;;11.40;6.80;;;5.40;60.70;;;;;;4956552;28;20039;-50
2023/02/24 09:36:18;;;;;;;10.88;7.00;;;5.40;60.70;;;;;;4959096;28;20026;-53
2023/02/24 09:41:55;;;;;;;9.80;6.97;;;5.30;60.70;;;;;;4951000;28;20039;-53
2023/02/24 09:44:24;;;;;;;9.82;7.05;;;5.30;60.80;;;;;;4952731;28;20097;-57
2023/02/24 09:46:58;;;;;;;9.60;6.68;;;5.30;60.90;;;;;;4950713;28;20418;-51
2023/02/24 09:49:38;;;;;;;9.63;7.15;;;5.30;61.10;;;;;;4943874;28;20049;-61
2023/02/24 09:52:15;;;;;;;8.45;6.45;;;5.40;61.00;;;;;;4955820;28;20035;-54
2023/02/24 09:55:17;;;;;;;10.98;6.97;;;5.40;61.10;;;;;;4942073;28;20045;-51
2023/02/24 10:00:42;;;;;;;8.70;6.53;;;5.50;60.90;;;;;;4946575;28;20080;-56
2023/02/24 10:03:19;;;;;;;9.55;6.55;;;5.40;60.90;;;;;;4949260;28;20046;-51
2023/02/24 10:06:10;;;;;;;11.32;7.22;;;5.40;61.10;;;;;;4946863;28;20031;-54
2023/02/24 10:08:45;;;;;;;9.45;6.10;;;5.40;61.30;;;;;;4950514;28;20031;-55
2023/02/24 10:11:12;;;;;;;9.27;6.50;;;5.50;61.40;;;;;;4951438;28;20039;-53
2023/02/24 10:13:52;;;;;;;11.18;6.78;;;5.50;61.30;;;;;;4957216;28;20125;-56
2023/02/24 10:16:24;;;;;;;8.80;6.40;;;5.50;61.20;;;;;;4945025;28;20158;-53
2023/02/24 10:19:15;;;;;;;8.02;6.47;;;5.60;61.30;;;;;;4951234;28;20059;-49
2023/02/24 10:21:59;;;;;;;9.32;6.57;;;5.60;61.20;;;;;;4955548;28;20073;-48
2023/02/24 10:24:46;;;;;;;12.45;7.22;;;5.70;61.50;;;;;;4964354;28;20609;-55
2023/02/24 10:27:40;;;;;;;10.18;6.20;;;5.70;61.40;;;;;;4964381;28;20473;-52
2023/02/24 10:30:19;;;;;;;9.75;6.47;;;5.80;61.20;;;;;;4961478;28;20531;-57
2023/02/24 10:32:57;;;;;;;8.27;5.78;;;5.80;61.10;;;;;;4958374;28;20039;-51
2023/02/24 10:35:24;;;;;;;9.18;6.75;;;5.80;61.10;;;;;;4953427;28;20142;-53
2023/02/24 10:37:51;;;;;;;8.05;6.30;;;5.90;61.30;;;;;;4949022;28;20037;-53
2023/02/24 10:40:26;;;;;;;7.60;6.03;;;5.90;61.20;;;;;;4959864;28;20046;-48
2023/02/24 10:43:09;;;;;;;8.00;6.43;;;5.90;61.30;;;;;;4953803;28;20034;-54
2023/02/24 10:45:43;;;;;;;12.18;6.68;;;6.00;61.40;;;;;;4958666;28;20026;-49
2023/02/24 10:48:23;;;;;;;10.98;6.40;;;6.10;61.30;;;;;;4953787;28;20581;-53
2023/02/24 10:50:53;;;;;;;10.38;6.53;;;6.10;61.00;;;;;;4957222;28;20457;-55
2023/02/24 10:53:27;;;;;;;7.85;5.93;;;6.10;61.00;;;;;;4956880;28;20039;-52
2023/02/24 10:59:14;;;;;;;8.40;5.60;;;6.10;61.10;;;;;;4949424;28;20065;-49
2023/02/24 11:01:53;;;;;;;9.13;5.97;;;6.10;61.30;;;;;;4950426;28;20027;-46
2023/02/24 11:04:32;;;;;;;7.60;5.40;;;6.10;61.30;;;;;;4953615;28;20049;-54
2023/02/24 11:07:10;;;;;;;8.48;5.88;;;6.10;61.30;;;;;;4950551;28;20073;-51
2023/02/24 11:09:51;;;;;;;7.95;5.90;;;6.10;61.50;;;;;;4938685;28;20094;-52
2023/02/24 11:18:31;;;;;;;8.77;5.70;;;6.10;61.60;;;;;;4955776;28;20129;-55
2023/02/24 11:21:03;;;;;;;7.70;5.30;;;6.20;61.70;;;;;;4959778;28;20031;-53
2023/02/24 11:23:34;;;;;;;8.30;5.90;;;6.20;61.70;;;;;;4953464;28;20042;-51
2023/02/24 11:26:15;;;;;;;;;;;6.20;61.80;;;;;;4951126;28;20493;-50
2023/02/24 11:28:53;;;;;;;8.68;6.00;;;6.20;62.10;;;;;;4943791;28;19917;-53
2023/02/24 11:31:34;;;;;;;9.02;6.97;;;6.20;61.70;;;;;;4947498;28;20022;-51
2023/02/24 11:34:23;;;;;;;8.98;6.20;;;6.20;61.90;;;;;;4943153;28;20034;-57
2023/02/24 11:37:07;;;;;;;8.88;6.47;;;6.20;61.90;;;;;;4945864;28;21956;-54
2023/02/24 11:39:42;;;;;;;9.23;5.72;;;6.20;62.00;;;;;;4942759;28;20046;-55
2023/02/24 11:42:13;;;;;;;9.60;6.20;;;6.20;62.00;;;;;;4946094;28;20026;-54
2023/02/24 11:44:55;;;;;;;9.05;5.68;;;6.20;62.10;;;;;;4944754;28;20038;-58
2023/02/24 11:47:31;;;;;;;9.32;6.15;;;6.20;62.10;;;;;;4951504;28;20042;-55
2023/02/24 11:50:32;;;;;;;10.48;6.80;;;6.20;62.30;;;;;;4955421;28;20062;-51
2023/02/24 11:53:04;;;;;;;8.20;5.93;;;6.30;62.10;;;;;;4955581;28;21042;-52
2023/02/24 11:55:41;;;;;;;10.35;6.25;;;6.40;62.10;;;;;;4962741;28;20043;-47
2023/02/24 11:58:17;;;;;;;7.65;5.75;;;6.40;62.00;;;;;;4956169;28;20030;-50
2023/02/24 12:00:54;;;;;;;8.45;6.05;;;6.40;61.80;;;;;;4964074;28;20058;-53
2023/02/24 12:03:34;;;;;;;11.27;6.55;;;6.40;61.80;;;;;;4952854;28;20038;-57
2023/02/24 12:06:14;;;;;;;8.05;5.97;;;6.40;61.70;;;;;;4955687;28;20045;-54
2023/02/24 12:08:43;;;;;;;8.80;5.80;;;6.40;61.80;;;;;;4962328;28;20187;-56
2023/02/24 12:11:44;;;;;;;8.68;5.80;;;6.40;61.80;;;;;;4959273;28;20062;-55
2023/02/24 12:14:31;;;;;;;8.65;5.80;;;6.40;62.10;;;;;;4950963;28;20113;-52
2023/02/24 12:17:22;;;;;;;11.00;5.88;;;6.40;62.00;;;;;;4956929;28;20555;-54
2023/02/24 12:19:58;;;;;;;9.30;6.00;;;6.40;62.20;;;;;;4965586;28;20043;-53
2023/02/24 12:22:33;;;;;;;8.07;6.35;;;6.40;62.00;;;;;;4956301;28;20046;-48
2023/02/24 12:24:59;;;;;;;7.13;5.45;;;6.40;62.20;;;;;;4960144;28;20477;-49
2023/02/24 12:28:12;;;;;;;8.57;5.50;;;6.40;62.00;;;;;;4957824;28;20038;-53
2023/02/24 12:30:59;;;;;;;9.07;6.53;;;6.40;62.00;;;;;;4949987;28;20043;-52
2023/02/24 12:34:00;;;;;;;10.02;6.13;;;6.40;62.00;;;;;;4950497;28;20130;-54
2023/02/24 12:36:59;;;;;;;9.27;6.50;;;6.40;62.00;;;;;;4940546;28;20042;-53
2023/02/24 12:39:30;;;;;;;8.10;5.75;;;6.40;62.00;;;;;;4962867;28;20389;-51
2023/02/24 12:42:14;;;;;;;8.52;6.35;;;6.30;62.10;;;;;;4966112;28;20038;-48
2023/02/24 12:44:55;;;;;;;6.97;5.90;;;6.30;62.10;;;;;;4961258;28;20039;-48
2023/02/24 12:47:41;;;;;;;7.45;5.75;;;6.30;62.30;;;;;;4961633;28;20037;-51
2023/02/24 12:50:16;;;;;;;8.48;6.10;;;6.20;62.40;;;;;;4965318;28;20066;-50
2023/02/24 12:53:08;;;;;;;8.75;6.45;;;6.20;62.60;;;;;;4959469;28;20035;-54
2023/02/24 12:55:45;;;;;;;10.00;6.82;;;6.20;62.90;;;;;;4958559;28;20485;-56
2023/02/24 12:58:20;;;;;;;9.02;6.43;;;6.20;62.80;;;;;;4952995;28;20054;-53
2023/02/24 13:01:23;;;;;;;8.38;6.55;;;6.30;62.90;;;;;;4963437;28;20126;-56
2023/02/24 13:04:13;;;;;;;9.43;6.55;;;6.30;62.90;;;;;;4957790;28;20031;-56
2023/02/24 13:06:54;;;;;;;12.23;6.90;;;6.30;62.80;;;;;;4957263;28;20058;-54
2023/02/24 13:09:25;;;;;;;11.23;6.60;;;6.30;62.70;;;;;;4951680;28;20032;-52
2023/02/24 13:12:36;;;;;;;13.75;8.65;;;6.40;62.80;;;;;;4961276;28;20035;-55
2023/02/24 13:15:19;;;;;;;9.35;7.30;;;6.30;63.00;;;;;;4955790;28;20047;-57
2023/02/24 13:17:47;;;;;;;10.70;6.95;;;6.30;63.20;;;;;;4961184;28;20042;-57
2023/02/24 13:20:25;;;;;;;8.75;6.82;;;6.30;63.30;;;;;;4955951;28;20039;-52
2023/02/24 13:22:50;;;;;;;10.18;7.82;;;6.30;63.40;;;;;;4960380;28;20431;-52
2023/02/24 13:25:23;;;;;;;11.85;7.78;;;6.30;63.50;;;;;;4949754;28;20043;-55
2023/02/24 13:28:02;;;;;;;10.63;6.90;;;6.30;63.50;;;;;;4950549;28;20043;-56
2023/02/24 13:30:30;;;;;;;13.00;7.15;;;6.30;63.70;;;;;;4956768;28;20043;-55
2023/02/24 13:33:21;;;;;;;13.45;7.82;;;6.20;63.90;;;;;;4958418;28;20038;-54
2023/02/24 13:35:49;;;;;;;11.52;7.43;;;6.20;64.10;;;;;;4958800;28;20034;-54
2023/02/24 13:38:30;;;;;;;10.13;7.18;;;6.20;64.30;;;;;;4963271;28;20046;-57
2023/02/24 13:41:27;;;;;;;13.52;7.80;;;6.10;64.40;;;;;;4955359;28;20105;-54
2023/02/24 13:43:54;;;;;;;10.50;7.20;;;6.10;64.40;;;;;;4958305;28;20031;-53
2023/02/24 13:46:20;;;;;;;12.00;8.48;;;6.10;64.50;;;;;;4961970;28;20045;-55
2023/02/24 13:49:04;;;;;;;12.20;8.18;;;6.10;64.70;;;;;;4958739;28;20095;-57
2023/02/24 13:51:58;;;;;;;10.15;7.93;;;6.00;64.70;;;;;;4958463;28;20465;-52